Flight Track Log - Related Links

Times and Time Zones

All times are in EDT time to prevent confusion due to time zone crossing. See the UAL538 flight status page for this flight to view local times or setup timezone preferences in your user account.

Time Position Orientation Groundspeed Altitude Reporting Facility
EDT Latitude Longitude Course Direction KTS MPH feet Rate Location/Type
Wed 10:19:44 PM 39.8767 -104.6050 79° East 210 242 6,500  Level Denver Center
Wed 10:20:45 PM 39.8903 -104.5244 78° East 218 251 8,200 1,707 Climbing Denver Center
Wed 10:21:47 PM 39.9000 -104.4261 83° East 289 333 10,000 1,694 Climbing Denver Center
Wed 10:22:00 PM 39.9322 -104.2235 78° East  Level FlightAware Approximate
Wed 10:22:49 PM 39.8844 -104.3094 100° East 330 380 11,700  Level Denver Center
Wed 10:23:00 PM 39.9570 -104.0746 78° East  Level FlightAware Approximate
Wed 10:23:50 PM 39.8650 -104.1672 100° East 368 423 14,400  Level Denver Center
Wed 10:24:00 PM 39.9843 -103.9264 79° East  Level FlightAware Approximate
Wed 10:24:52 PM 39.8525 -104.0289 97° East 385 443 16,900  Level Denver Center
Wed 10:25:53 PM 39.9211 -103.9156 52° Northeast 375 432 18,800 1,805 Climbing Denver Center
Wed 10:26:55 PM 39.9925 -103.8094 49° Northeast 392 451 20,600 1,645 Climbing Denver Center
Wed 10:27:57 PM 40.0353 -103.6772 67° East 401 461 22,200 1,463 Climbing Denver Center
Wed 10:28:58 PM 40.0614 -103.5219 78° East 433 498 23,600 1,366 Climbing Denver Center
Wed 10:30:00 PM 40.0878 -103.3592 78° East 452 520 25,000 1,317 Climbing Denver Center
Wed 10:31:01 PM 40.1153 -103.1919 78° East 465 535 26,300 1,268 Climbing Denver Center
Wed 10:32:03 PM 40.1417 -103.0214 79° East 472 543 27,600 1,073 Climbing Denver Center
Wed 10:33:04 PM 40.1653 -102.8750 78° East 487 560 28,500 1,122 Climbing Denver Center
Wed 10:34:06 PM 40.2003 -102.6461 79° East 498 573 29,900 1,415 Climbing Denver Center
Wed 10:35:07 PM 40.2272 -102.4758 78° East 500 575 31,400 1,366 Climbing Denver Center
Wed 10:36:09 PM 40.2578 -102.2769 79° East 500 575 32,700 1,268 Climbing Denver Center
Wed 10:37:10 PM 40.2828 -102.1081 79° East 495 570 34,000 1,131 Climbing Denver Center
Wed 10:38:11 PM 40.3117 -101.9106 79° East 496 571 35,000 488 Climbing Denver Center
Wed 10:39:13 PM 40.3361 -101.7431 79° East 492 566 35,000  Level Denver Center
Wed 10:40:14 PM 40.3617 -101.5747 79° East 494 568 35,000  Level Denver Center
Wed 10:41:16 PM 40.3903 -101.3756 79° East 499 574 35,000  Level Denver Center
Wed 10:42:17 PM 40.4139 -101.2056 80° East 497 572 35,000 -49 Level Denver Center
Wed 10:43:18 PM 40.4425 -101.0094 79° East 494 568 34,900  Descending Denver Center
Wed 10:44:20 PM 40.4656 -100.8389 80° East 500 575 35,000 44 Climbing Denver Center
Wed 10:45:33 PM 40.4906 -100.6414 80° East 496 571 35,000  Level Denver Center
Wed 10:46:35 PM 40.5161 -100.4431 80° East 498 573 35,000  Level Denver Center
Wed 10:47:36 PM 40.5414 -100.2447 80° East 497 572 35,000  Level Denver Center
Wed 10:48:37 PM 40.5625 -100.0719 81° East 502 578 35,000  Level Denver Center
Wed 10:49:39 PM 40.5867 -99.8708 81° East 503 579 35,000  Level Denver Center
Wed 10:50:40 PM 40.6081 -99.7008 81° East 500 575 35,000  Level Denver Center
Wed 10:51:41 PM 40.6292 -99.5186 81° East 504 580 35,000  Level Denver Center
Wed 10:52:43 PM 40.6508 -99.3386 81° East 500 575 35,000  Level Denver Center
Wed 10:53:44 PM 40.6714 -99.1572 81° East 503 579 35,000  Level Denver Center
Wed 10:54:00 PM 40.6803 -99.0850 81° East 503 579 35,000  Level Minneapolis Center
Wed 10:55:01 PM 40.7006 -98.9050 81° East 502 578 35,000  Level Minneapolis Center
Wed 10:56:02 PM 40.7208 -98.7247 82° East 502 578 35,000  Level Minneapolis Center
Wed 10:57:04 PM 40.7400 -98.5442 82° East 502 578 35,000  Level Minneapolis Center
Wed 10:58:05 PM 40.7608 -98.3633 81° East 502 578 35,000  Level Minneapolis Center
Wed 10:59:07 PM 40.7797 -98.1806 82° East 504 580 35,000  Level Minneapolis Center
Wed 11:00:08 PM 40.8025 -97.9617 82° East 504 580 35,000  Level Minneapolis Center
Wed 11:01:09 PM 40.8217 -97.7786 82° East 505 581 35,000  Level Minneapolis Center
Wed 11:02:11 PM 40.8406 -97.5956 82° East 504 580 35,000  Level Minneapolis Center
Wed 11:03:12 PM 40.8586 -97.4119 83° East 505 581 35,000  Level Minneapolis Center
Wed 11:04:14 PM 40.8778 -97.2278 82° East 506 582 35,000  Level Minneapolis Center
Wed 11:05:15 PM 40.8956 -97.0428 83° East 507 583 35,000  Level Minneapolis Center
Wed 11:06:16 PM 40.9128 -96.8597 83° East 507 583 35,000  Level Minneapolis Center
Wed 11:07:18 PM 40.9339 -96.6761 81° East 507 583 35,000  Level Minneapolis Center
Wed 11:08:19 PM 40.9667 -96.4975 76° East 505 581 35,000 -976 Level Minneapolis Center
Wed 11:09:21 PM 41.0069 -96.2828 76° East 503 579 33,000 -2,488 Descending Minneapolis Center
Wed 11:10:22 PM 41.0386 -96.0925 77° East 525 604 29,900 -2,293 Descending Minneapolis Center
Wed 11:11:24 PM 41.0711 -95.9106 77° East 521 600 28,300 -1,707 Descending Minneapolis Center
Wed 11:12:25 PM 41.1006 -95.7394 77° East 493 567 26,400 -1,967 Descending Minneapolis Center
Wed 11:13:26 PM 41.1281 -95.5731 78° East 474 545 24,300 -1,951 Descending Minneapolis Center
Wed 11:14:28 PM 41.1553 -95.4167 77° East 449 517 22,400 -2,000 Descending Minneapolis Center
Wed 11:15:29 PM 41.1856 -95.2367 77° East 423 487 20,200 -1,854 Descending Minneapolis Center
Wed 11:16:31 PM 41.2083 -95.0925 78° East 408 470 18,600 -1,512 Descending Minneapolis Center
Wed 11:17:32 PM 41.2317 -94.9558 77° East 389 448 17,100 -1,475 Descending Minneapolis Center
Wed 11:18:33 PM 41.2519 -94.8231 78° East 375 432 15,600 -1,579 Descending Minneapolis Center
Wed 11:18:48 PM 41.2661 -94.7744 69° East 372 428 15,100 -1,548 Descending Minneapolis Center
Wed 11:19:35 PM 41.2731 -94.6925 84° East 366 421 14,000 -1,583 Descending Minneapolis Center
Wed 11:20:00 PM 41.2906 -94.6175 73° East 356 410 13,200 -1,672 Descending Minneapolis Center
Wed 11:20:36 PM 41.2978 -94.5483 82° East 357 411 12,300 -1,377 Descending Minneapolis Center
Wed 11:21:01 PM 41.3100 -94.4914 74° East 350 403 11,800 -1,377 Descending Minneapolis Center
Wed 11:21:37 PM 41.3169 -94.4247 82° East 342 394 10,900 -1,475 Descending Minneapolis Center
Wed 11:22:02 PM 41.3275 -94.3681 76° East 340 391 10,300 -1,355 Descending Minneapolis Center
Wed 11:22:39 PM 41.3247 -94.3033 93° East 330 380 9,500 -1,400 Descending Minneapolis Center
Wed 11:23:02 PM 41.3322 -94.2486 80° East 326 375 8,900 -1,475 Descending Minneapolis Center
Wed 11:23:40 PM 41.3275 -94.1861 96° East 320 368 8,000 -1,279 Descending Minneapolis Center
Wed 11:24:03 PM 41.3350 -94.1319 80° East 319 367 7,600 -1,377 Descending Minneapolis Center
Wed 11:24:41 PM 41.3308 -94.0636 95° East 309 356 6,600 -1,400 Descending Minneapolis Center
Wed 11:25:03 PM 41.3381 -94.0236 76° East 307 353 6,200 -1,258 Descending Minneapolis Center
Wed 11:25:43 PM 41.3342 -93.9547 94° East 299 344 5,300 -1,180 Descending Minneapolis Center
Wed 11:26:04 PM 41.3406 -93.9069 80° East 297 342 5,000 -295 Descending Minneapolis Center
Wed 11:26:44 PM 41.3375 -93.8486 94° East 292 336 5,000  Level Minneapolis Center
Wed 11:27:05 PM 41.3436 -93.8014 80° East 288 331 5,000  Level Minneapolis Center
Wed 11:27:45 PM 41.3397 -93.7447 95° East 264 304 5,000 -100 Level Minneapolis Center
Wed 11:28:05 PM 41.3472 -93.7094 74° East 259 298 4,900 -787 Descending Minneapolis Center
Wed 11:28:46 PM 41.3436 -93.6525 95° East 254 292 4,200 -885 Descending Minneapolis Center
Wed 11:29:06 PM 41.3547 -93.6172 67° East 252 290 4,000 -787 Descending Minneapolis Center
Wed 11:29:47 PM 41.3644 -93.5747 73° East 226 260 3,400 -885 Descending Minneapolis Center
Wed 11:30:07 PM 41.3825 -93.5481 48° Northeast 217 250 3,100 -900 Descending Minneapolis Center

Login

Don't have an account? Register now (free) for customized features, flight alerts, and more!